createdAt,value
2022-11-17T00:01:22.083Z,13.43
2022-11-17T00:03:49.704Z,4.82
2022-11-17T00:06:17.048Z,2.63
2022-11-17T00:08:43.591Z,6.35
2022-11-17T00:11:10.028Z,5.00
2022-11-17T00:13:57.972Z,5.32
2022-11-17T00:16:24.341Z,5.63
2022-11-17T00:19:10.133Z,5.10
2022-11-17T00:21:36.580Z,8.85
2022-11-17T00:24:03.235Z,6.30
2022-11-17T00:26:32.621Z,4.40
2022-11-17T00:29:01.336Z,1.90
2022-11-17T00:31:48.207Z,2.22
2022-11-17T00:34:19.886Z,2.33
2022-11-17T00:36:51.518Z,4.70
2022-11-17T00:39:21.995Z,2.60
2022-11-17T00:41:50.662Z,4.97
2022-11-17T00:44:17.587Z,5.50
2022-11-17T00:46:46.255Z,3.22
2022-11-17T00:49:14.425Z,5.22
2022-11-17T00:51:41.512Z,7.10
2022-11-17T00:54:11.375Z,2.40
2022-11-17T00:56:38.061Z,2.45
2022-11-17T00:59:04.606Z,4.72
2022-11-17T01:01:31.356Z,4.82
2022-11-17T01:04:03.642Z,4.57
2022-11-17T01:06:36.234Z,4.22
2022-11-17T01:09:05.206Z,5.70
2022-11-17T01:11:31.730Z,3.55
2022-11-17T01:14:00.010Z,1.83
2022-11-17T01:16:30.325Z,9.73
2022-11-17T01:19:00.272Z,5.38
2022-11-17T01:21:28.531Z,6.88
2022-11-17T01:23:58.859Z,8.30
2022-11-17T01:26:28.314Z,5.70
2022-11-17T01:28:55.327Z,6.40
2022-11-17T01:31:27.641Z,8.77
2022-11-17T01:33:54.395Z,1.85
2022-11-17T01:36:26.801Z,3.15
2022-11-17T01:38:53.243Z,2.33
2022-11-17T01:41:27.708Z,1.95
2022-11-17T01:43:58.360Z,3.88
2022-11-17T01:46:40.563Z,4.57
2022-11-17T01:49:18.763Z,5.90
2022-11-17T01:51:48.954Z,6.38
2022-11-17T01:54:19.292Z,6.93
2022-11-17T01:56:55.042Z,7.60
2022-11-17T01:59:30.307Z,1.52
2022-11-17T02:01:57.775Z,6.07
2022-11-17T02:04:35.498Z,8.57
2022-11-17T02:07:13.676Z,4.30
2022-11-17T02:09:41.071Z,4.43
2022-11-17T02:12:10.987Z,2.17
2022-11-17T02:14:40.419Z,2.50
2022-11-17T02:17:13.757Z,5.90
2022-11-17T02:19:42.938Z,3.53
2022-11-17T02:22:47.192Z,4.45
2022-11-17T02:25:38.085Z,7.78
2022-11-17T02:28:24.864Z,9.52
2022-11-17T02:30:59.746Z,5.18
2022-11-17T02:33:49.597Z,4.75
2022-11-17T02:36:34.738Z,3.13
2022-11-17T02:39:18.964Z,3.80
2022-11-17T02:42:14.017Z,5.20
2022-11-17T02:44:52.696Z,5.90
2022-11-17T02:47:24.558Z,1.90
2022-11-17T02:50:00.923Z,9.98
2022-11-17T02:52:30.068Z,1.83
2022-11-17T02:55:04.343Z,3.72
2022-11-17T02:57:37.326Z,3.30
2022-11-17T03:00:07.765Z,6.15
2022-11-17T03:02:59.593Z,1.48
2022-11-17T03:05:37.964Z,8.98
2022-11-17T03:08:11.602Z,2.10
2022-11-17T03:10:59.544Z,3.42
2022-11-17T03:13:31.737Z,3.90
2022-11-17T03:16:24.432Z,6.05
2022-11-17T03:21:40.808Z,2.15
2022-11-17T03:24:28.441Z,5.90
2022-11-17T03:27:01.957Z,4.82
2022-11-17T03:29:32.684Z,1.52
2022-11-17T03:32:07.053Z,3.10
2022-11-17T03:34:46.015Z,10.25
2022-11-17T03:37:15.482Z,6.10
2022-11-17T03:39:45.241Z,3.28
2022-11-17T03:42:30.822Z,4.60
2022-11-17T03:45:05.681Z,5.90
2022-11-17T03:47:33.643Z,6.53
2022-11-17T03:50:08.198Z,7.97
2022-11-17T03:52:36.479Z,5.45
2022-11-17T03:55:03.399Z,9.38
2022-11-17T03:58:01.068Z,8.05
2022-11-17T04:00:27.674Z,7.85
2022-11-17T04:02:56.083Z,7.85
2022-11-17T04:05:22.816Z,4.85
2022-11-17T04:07:49.524Z,9.90
2022-11-17T04:10:18.407Z,4.28
2022-11-17T04:13:03.684Z,4.50
2022-11-17T04:15:49.144Z,6.85
2022-11-17T04:18:15.885Z,6.32
2022-11-17T04:20:45.374Z,3.10
2022-11-17T04:23:14.200Z,2.75
2022-11-17T04:26:01.819Z,3.20
2022-11-17T04:28:41.515Z,1.27
2022-11-17T04:31:14.179Z,1.23
2022-11-17T04:33:42.978Z,4.40
2022-11-17T04:36:13.208Z,5.13
2022-11-17T04:38:44.395Z,6.82
2022-11-17T04:41:31.545Z,4.05
2022-11-17T04:43:58.495Z,4.72
2022-11-17T04:46:25.704Z,7.20
2022-11-17T04:48:55.046Z,2.72
2022-11-17T04:51:27.504Z,2.13
2022-11-17T04:53:54.456Z,2.00
2022-11-17T04:56:22.073Z,4.35
2022-11-17T04:58:54.128Z,2.65
2022-11-17T05:01:22.302Z,4.13
2022-11-17T05:03:55.846Z,3.47
2022-11-17T05:06:26.653Z,6.32
2022-11-17T05:08:57.988Z,6.80
2022-11-17T05:11:45.778Z,5.33
2022-11-17T05:14:17.781Z,2.75
2022-11-17T05:17:09.051Z,7.63
2022-11-17T05:19:46.512Z,1.88
2022-11-17T05:22:36.978Z,2.80
2022-11-17T05:25:04.814Z,2.42
2022-11-17T05:27:31.662Z,1.27
2022-11-17T05:30:00.458Z,5.00
2022-11-17T05:32:26.937Z,1.85
2022-11-17T05:34:53.429Z,4.18
2022-11-17T05:37:19.983Z,3.05
2022-11-17T05:39:46.483Z,4.60
2022-11-17T05:42:12.891Z,2.90
2022-11-17T05:44:41.691Z,4.22
2022-11-17T05:47:08.136Z,2.22
2022-11-17T05:49:37.082Z,3.55
2022-11-17T05:52:03.545Z,3.30
2022-11-17T05:54:30.084Z,2.17
2022-11-17T05:57:04.126Z,3.60
2022-11-17T05:59:46.363Z,3.92
2022-11-17T06:02:18.672Z,2.45
2022-11-17T06:07:12.878Z,9.05
2022-11-17T06:09:41.870Z,1.17
2022-11-17T06:12:08.625Z,3.85
2022-11-17T06:14:35.658Z,4.35
2022-11-17T06:17:07.725Z,2.40
2022-11-17T06:19:40.691Z,4.60
2022-11-17T06:22:12.638Z,5.55
2022-11-17T06:24:44.964Z,6.25
2022-11-17T06:27:18.734Z,2.83
2022-11-17T06:29:46.883Z,1.35
2022-11-17T06:32:14.915Z,1.23
2022-11-17T06:34:43.297Z,2.15
2022-11-17T06:37:11.897Z,2.88
2022-11-17T06:39:40.590Z,1.50
2022-11-17T06:42:06.977Z,1.02
2022-11-17T06:44:33.509Z,4.43
2022-11-17T06:47:02.958Z,4.25
2022-11-17T06:49:34.168Z,4.00
2022-11-17T06:52:00.534Z,3.10
2022-11-17T06:54:26.957Z,7.05
2022-11-17T06:56:56.142Z,1.88
2022-11-17T06:59:22.626Z,1.10
2022-11-17T07:01:49.023Z,6.10
2022-11-17T07:04:15.676Z,5.45
2022-11-17T07:06:42.038Z,4.90
2022-11-17T07:09:08.432Z,4.03
2022-11-17T07:11:36.244Z,5.15
2022-11-17T07:14:07.706Z,1.58
2022-11-17T07:16:36.501Z,2.20
2022-11-17T07:19:03.774Z,2.90
2022-11-17T07:21:32.910Z,2.13
2022-11-17T07:23:59.352Z,1.90
2022-11-17T07:26:25.776Z,9.70
2022-11-17T07:28:52.138Z,2.35
2022-11-17T07:31:18.623Z,3.83
2022-11-17T07:33:45.251Z,4.80
2022-11-17T07:36:14.479Z,6.07
2022-11-17T07:38:43.618Z,1.85
2022-11-17T07:41:14.043Z,5.55
2022-11-17T07:43:40.589Z,4.15
2022-11-17T07:46:12.372Z,5.00
2022-11-17T07:48:43.064Z,7.65
2022-11-17T07:51:09.886Z,7.97
2022-11-17T07:53:38.654Z,4.43
2022-11-17T07:56:07.647Z,9.32
2022-11-17T07:58:34.810Z,5.95
2022-11-17T08:01:27.904Z,3.78
2022-11-17T08:03:54.455Z,1.80
2022-11-17T08:06:21.116Z,9.70
2022-11-17T08:08:49.595Z,5.53
2022-11-17T08:11:16.194Z,2.35
2022-11-17T08:13:42.649Z,4.07
2022-11-17T08:16:10.381Z,6.65
2022-11-17T08:18:40.311Z,4.00
2022-11-17T08:21:08.324Z,1.50
2022-11-17T08:23:35.500Z,3.85
2022-11-17T08:26:03.606Z,7.72
2022-11-17T08:28:30.598Z,1.67
2022-11-17T08:31:03.087Z,4.22
2022-11-17T08:33:29.619Z,4.22
2022-11-17T08:36:01.005Z,4.00
2022-11-17T08:38:29.172Z,5.47
2022-11-17T08:41:01.719Z,3.47
2022-11-17T08:43:28.278Z,2.72
2022-11-17T08:45:54.764Z,3.78
2022-11-17T08:48:21.801Z,3.50
2022-11-17T08:50:49.311Z,5.55
2022-11-17T08:53:18.900Z,4.22
2022-11-17T08:55:45.523Z,4.30
2022-11-17T08:58:12.368Z,6.20
2022-11-17T09:00:40.314Z,1.50
2022-11-17T09:03:10.890Z,4.88
2022-11-17T09:05:40.080Z,2.88
2022-11-17T09:08:43.423Z,5.22
2022-11-17T09:10:57.481Z,4.05
2022-11-17T09:13:27.048Z,7.10
2022-11-17T09:15:53.480Z,2.30
2022-11-17T09:18:19.847Z,2.95
2022-11-17T09:20:46.491Z,4.93
2022-11-17T09:23:13.166Z,12.77
2022-11-17T09:25:42.027Z,9.90
2022-11-17T09:28:08.583Z,7.35
2022-11-17T09:30:36.243Z,4.78
2022-11-17T09:33:07.528Z,7.30
2022-11-17T09:35:34.073Z,8.83
2022-11-17T09:38:03.460Z,7.03
2022-11-17T09:40:36.305Z,7.45
2022-11-17T09:43:11.134Z,7.70
2022-11-17T09:45:39.177Z,14.20
2022-11-17T09:48:40.289Z,5.47
2022-11-17T09:51:10.698Z,10.93
2022-11-17T09:53:50.991Z,7.95
2022-11-17T09:56:17.593Z,8.05
2022-11-17T09:58:50.377Z,9.32
2022-11-17T10:01:19.082Z,5.18
2022-11-17T10:03:48.563Z,11.38
2022-11-17T10:06:19.548Z,12.43
2022-11-17T10:09:01.279Z,10.90
2022-11-17T10:11:33.872Z,14.75
2022-11-17T10:14:12.412Z,4.97
2022-11-17T10:16:42.161Z,8.95
2022-11-17T10:19:22.210Z,6.85
2022-11-17T10:22:08.864Z,10.48
2022-11-17T10:24:50.852Z,6.40
2022-11-17T10:27:17.258Z,5.53
2022-11-17T10:30:03.582Z,18.25
2022-11-17T10:32:36.609Z,8.23
2022-11-17T10:35:19.593Z,3.22
2022-11-17T10:38:08.690Z,12.77
2022-11-17T10:40:41.054Z,12.05
2022-11-17T10:43:13.568Z,9.52
2022-11-17T10:45:45.346Z,4.93
2022-11-17T10:48:35.580Z,9.73
2022-11-17T10:51:10.457Z,3.10
2022-11-17T10:53:46.807Z,10.88
2022-11-17T10:56:24.863Z,14.10
2022-11-17T10:59:02.592Z,3.60
2022-11-17T11:01:30.800Z,9.55
2022-11-17T11:03:57.380Z,6.97
2022-11-17T11:06:32.101Z,2.08
2022-11-17T11:09:01.903Z,8.98
2022-11-17T11:11:48.310Z,8.60
2022-11-17T11:14:18.134Z,4.65
2022-11-17T11:16:51.805Z,3.38
2022-11-17T11:19:19.949Z,4.90
2022-11-17T11:22:01.398Z,14.40
2022-11-17T11:24:50.986Z,18.37
2022-11-17T11:27:48.250Z,6.28
2022-11-17T11:30:19.356Z,7.22
2022-11-17T11:32:54.677Z,5.97
2022-11-17T11:35:23.856Z,8.93
2022-11-17T11:37:59.334Z,7.25
2022-11-17T11:40:35.008Z,12.93
2022-11-17T11:43:25.734Z,6.28
2022-11-17T11:46:07.360Z,23.70
2022-11-17T11:48:36.822Z,6.22
2022-11-17T11:51:19.179Z,4.88
2022-11-17T11:56:27.580Z,3.70
2022-11-17T11:58:59.092Z,6.20
2022-11-17T12:01:28.940Z,11.63
2022-11-17T12:04:40.875Z,11.05
2022-11-17T12:07:28.792Z,4.90
2022-11-17T12:10:36.496Z,13.85
2022-11-17T12:13:04.127Z,9.63
2022-11-17T12:15:36.969Z,9.15
2022-11-17T12:18:17.330Z,11.90
2022-11-17T12:20:56.431Z,8.25
2022-11-17T12:23:47.739Z,10.70
2022-11-17T12:26:25.468Z,4.88
2022-11-17T12:29:20.563Z,6.72
2022-11-17T12:31:51.680Z,9.18
2022-11-17T12:34:36.831Z,10.50
2022-11-17T12:37:13.133Z,7.55
2022-11-17T12:39:54.904Z,6.20
2022-11-17T12:42:21.349Z,6.65
2022-11-17T12:44:50.123Z,9.45
2022-11-17T12:47:42.086Z,5.15
2022-11-17T12:50:08.733Z,8.07
2022-11-17T12:53:20.371Z,6.70
2022-11-17T12:56:14.695Z,9.20
2022-11-17T12:58:59.564Z,4.50
2022-11-17T13:01:38.301Z,4.05
2022-11-17T13:04:12.093Z,8.38
2022-11-17T13:06:38.817Z,3.30
2022-11-17T13:09:12.072Z,7.53
2022-11-17T13:11:41.603Z,2.63
2022-11-17T13:14:16.592Z,2.85
2022-11-17T13:16:49.463Z,4.32
2022-11-17T13:22:05.726Z,4.85
2022-11-17T13:24:42.364Z,8.02
2022-11-17T13:27:28.931Z,3.78
2022-11-17T13:30:27.744Z,4.95
2022-11-17T13:32:55.802Z,4.45
2022-11-17T13:35:23.827Z,4.75
2022-11-17T13:38:02.672Z,5.95
2022-11-17T13:40:33.867Z,1.60
2022-11-17T13:43:03.109Z,3.70
2022-11-17T13:45:29.774Z,2.40
2022-11-17T13:48:01.804Z,5.60
2022-11-17T13:50:33.486Z,3.22
2022-11-17T13:53:13.727Z,1.67
2022-11-17T13:55:46.978Z,3.08
2022-11-17T13:58:38.571Z,3.45
2022-11-17T14:01:05.158Z,1.87
2022-11-17T14:03:33.246Z,2.08
2022-11-17T14:05:59.717Z,1.25
2022-11-17T14:08:32.066Z,0.95
2022-11-17T14:11:15.643Z,2.42
2022-11-17T14:13:59.096Z,2.10
2022-11-17T14:16:27.401Z,2.10
2022-11-17T14:19:16.781Z,7.93
2022-11-17T14:22:01.553Z,10.25
2022-11-17T14:24:28.587Z,7.85
2022-11-17T14:27:00.126Z,5.30
2022-11-17T14:29:30.206Z,2.33
2022-11-17T14:31:57.321Z,1.55
2022-11-17T14:34:26.423Z,1.52
2022-11-17T14:36:57.270Z,3.17
2022-11-17T14:39:23.712Z,4.35
2022-11-17T14:41:51.058Z,2.17
2022-11-17T14:44:17.538Z,10.95
2022-11-17T14:46:46.383Z,1.70
2022-11-17T14:49:13.264Z,3.03
2022-11-17T14:51:40.067Z,3.30
2022-11-17T14:54:06.715Z,2.40
2022-11-17T14:56:34.633Z,3.85
2022-11-17T14:59:01.204Z,8.05
2022-11-17T15:01:30.963Z,10.82
2022-11-17T15:03:59.992Z,6.72
2022-11-17T15:06:27.166Z,10.00
2022-11-17T15:09:01.366Z,7.10
2022-11-17T15:11:33.922Z,8.77
2022-11-17T15:14:05.604Z,2.55
2022-11-17T15:16:32.705Z,13.35
2022-11-17T15:18:59.858Z,6.82
2022-11-17T15:21:26.291Z,6.00
2022-11-17T15:23:57.540Z,6.05
2022-11-17T15:26:23.976Z,6.00
2022-11-17T15:28:52.727Z,7.20
2022-11-17T15:31:20.162Z,8.52
2022-11-17T15:33:47.949Z,13.50
2022-11-17T15:36:19.533Z,11.88
2022-11-17T15:38:47.767Z,14.88
2022-11-17T15:41:15.193Z,3.13
2022-11-17T15:43:43.396Z,11.95
2022-11-17T15:46:14.914Z,5.40
2022-11-17T15:48:43.456Z,10.27
2022-11-17T15:51:20.680Z,3.67
2022-11-17T15:53:48.519Z,10.73
2022-11-17T15:56:20.870Z,8.13
2022-11-17T16:01:25.120Z,9.50
2022-11-17T16:03:53.141Z,5.85
2022-11-17T16:06:19.671Z,6.72
2022-11-17T16:08:46.052Z,13.98
2022-11-17T16:11:12.596Z,3.60
2022-11-17T16:13:38.962Z,7.82
2022-11-17T16:16:12.294Z,5.88
2022-11-17T16:18:39.219Z,4.78
2022-11-17T16:21:08.420Z,3.75
2022-11-17T16:23:43.293Z,7.68
2022-11-17T16:26:13.536Z,3.20
2022-11-17T16:28:40.307Z,4.50
2022-11-17T16:31:15.280Z,8.35
2022-11-17T16:33:50.435Z,17.88
2022-11-17T16:36:18.208Z,12.98
2022-11-17T16:38:59.841Z,10.23
2022-11-17T16:44:11.764Z,5.53
2022-11-17T16:46:40.827Z,12.88
2022-11-17T16:49:12.941Z,12.75
2022-11-17T16:54:11.381Z,15.82
2022-11-17T16:56:37.958Z,11.45
2022-11-17T16:59:04.485Z,14.40
2022-11-17T17:01:33.115Z,8.75
2022-11-17T17:04:01.895Z,3.70
2022-11-17T17:06:29.306Z,9.13
2022-11-17T17:09:02.984Z,11.30
2022-11-17T17:11:31.777Z,9.13
2022-11-17T17:14:03.089Z,9.65
2022-11-17T17:16:31.242Z,8.63
2022-11-17T17:18:59.993Z,8.38
2022-11-17T17:21:27.926Z,12.13
2022-11-17T17:23:54.816Z,4.45
2022-11-17T17:26:23.034Z,3.83
2022-11-17T17:28:51.748Z,13.90
2022-11-17T17:31:21.888Z,7.57
2022-11-17T17:33:52.547Z,15.27
2022-11-17T17:36:24.412Z,9.80
2022-11-17T17:38:55.814Z,8.95
2022-11-17T17:41:24.960Z,9.30
2022-11-17T17:43:57.395Z,7.28
2022-11-17T17:46:24.373Z,11.00
2022-11-17T17:48:55.620Z,23.25
2022-11-17T17:51:29.080Z,20.63
2022-11-17T17:53:58.230Z,13.20
2022-11-17T17:56:25.255Z,14.05
2022-11-17T17:58:55.220Z,17.48
2022-11-17T18:01:29.671Z,16.95
2022-11-17T18:04:04.715Z,18.23
2022-11-17T18:06:42.541Z,20.63
2022-11-17T18:09:10.792Z,21.23
2022-11-17T18:11:37.319Z,18.38
2022-11-17T18:14:04.004Z,18.65
2022-11-17T18:16:33.026Z,14.73
2022-11-17T18:19:04.905Z,17.75
2022-11-17T18:21:31.927Z,12.77
2022-11-17T18:24:00.831Z,11.48
2022-11-17T18:26:33.010Z,15.73
2022-11-17T18:29:01.977Z,15.15
2022-11-17T18:31:32.444Z,23.10
2022-11-17T18:34:13.665Z,12.55
2022-11-17T18:36:40.234Z,19.70
2022-11-17T18:39:06.674Z,15.52
2022-11-17T18:41:34.067Z,16.85
2022-11-17T18:44:01.367Z,9.65
2022-11-17T18:46:30.743Z,10.77
2022-11-17T18:48:57.950Z,9.73
2022-11-17T18:51:27.106Z,12.65
2022-11-17T18:53:57.977Z,31.80
2022-11-17T18:56:31.373Z,16.55
2022-11-17T18:58:57.835Z,38.53
2022-11-17T19:01:27.763Z,8.18
2022-11-17T19:04:00.218Z,24.48
2022-11-17T19:08:54.026Z,42.88
2022-11-17T19:11:22.308Z,50.60
2022-11-17T19:13:49.038Z,53.13
2022-11-17T19:16:23.705Z,41.90
2022-11-17T19:18:52.693Z,35.00
2022-11-17T19:21:30.910Z,30.20
2022-11-17T19:23:59.452Z,16.33
2022-11-17T19:26:33.909Z,22.80
2022-11-17T19:29:02.977Z,19.58
2022-11-17T19:31:32.064Z,15.63
2022-11-17T19:33:59.370Z,10.25
2022-11-17T19:36:31.348Z,10.93
2022-11-17T19:38:59.405Z,16.77
2022-11-17T19:41:30.996Z,7.03
2022-11-17T19:44:00.466Z,12.52
2022-11-17T19:46:28.141Z,8.20
2022-11-17T19:48:58.363Z,59.53
2022-11-17T19:51:27.521Z,22.38
2022-11-17T19:53:56.232Z,65.80
2022-11-17T19:56:24.381Z,16.58
2022-11-17T19:58:51.923Z,26.83
2022-11-17T20:01:26.482Z,10.27
2022-11-17T20:03:56.220Z,15.88
2022-11-17T20:06:27.365Z,13.95
2022-11-17T20:08:55.409Z,10.68
2022-11-17T20:11:24.195Z,16.90
2022-11-17T20:13:50.875Z,14.70
2022-11-17T20:16:19.752Z,16.50
2022-11-17T20:18:50.893Z,20.10
2022-11-17T20:21:18.253Z,13.25
2022-11-17T20:23:45.441Z,23.15
2022-11-17T20:26:25.353Z,29.63
2022-11-17T20:28:52.655Z,14.85
2022-11-17T20:31:24.682Z,22.73
2022-11-17T20:33:52.503Z,34.22
2022-11-17T20:36:21.435Z,18.20
2022-11-17T20:38:51.959Z,31.95
2022-11-17T20:41:20.865Z,32.30
2022-11-17T20:43:51.853Z,29.02
2022-11-17T20:46:18.934Z,30.70
2022-11-17T20:48:45.819Z,18.45
2022-11-17T20:51:14.860Z,16.25
2022-11-17T20:53:41.276Z,15.35
2022-11-17T20:56:09.985Z,19.63
2022-11-17T20:58:37.049Z,7.15
2022-11-17T21:01:11.174Z,23.60
2022-11-17T21:03:38.230Z,20.02
2022-11-17T21:06:05.334Z,17.88
2022-11-17T21:08:34.606Z,21.73
2022-11-17T21:11:03.621Z,11.43
2022-11-17T21:13:32.434Z,14.52
2022-11-17T21:16:02.017Z,11.20
2022-11-17T21:18:30.787Z,9.65
2022-11-17T21:21:04.804Z,32.40
2022-11-17T21:23:31.449Z,11.65
2022-11-17T21:25:57.925Z,10.93
2022-11-17T21:28:24.557Z,40.58
2022-11-17T21:30:53.472Z,24.52
2022-11-17T21:33:19.967Z,33.85
2022-11-17T21:35:48.857Z,35.42
2022-11-17T21:38:15.350Z,23.55
2022-11-17T21:40:41.774Z,15.23
2022-11-17T21:43:08.203Z,9.93
2022-11-17T21:45:34.678Z,24.15
2022-11-17T21:48:01.231Z,26.70
2022-11-17T21:50:27.744Z,19.73
2022-11-17T21:52:54.333Z,14.57
2022-11-17T21:55:21.001Z,25.63
2022-11-17T21:57:50.505Z,19.10
2022-11-17T22:00:17.974Z,10.50
2022-11-17T22:02:44.463Z,20.95
2022-11-17T22:05:13.553Z,10.18
2022-11-17T22:07:39.987Z,8.98
2022-11-17T22:10:07.152Z,10.43
2022-11-17T22:12:33.746Z,38.38
2022-11-17T22:15:04.214Z,22.90
2022-11-17T22:17:33.722Z,17.45
2022-11-17T22:20:00.225Z,13.77
2022-11-17T22:22:26.713Z,23.67
2022-11-17T22:24:53.193Z,16.42
2022-11-17T22:27:22.139Z,11.85
2022-11-17T22:29:48.589Z,7.88
2022-11-17T22:32:14.976Z,6.28
2022-11-17T22:34:41.457Z,4.20
2022-11-17T22:37:07.888Z,3.10
2022-11-17T22:39:34.290Z,4.47
2022-11-17T22:42:00.843Z,3.10
2022-11-17T22:44:32.316Z,4.03
2022-11-17T22:46:58.831Z,3.87
2022-11-17T22:49:25.222Z,6.05
2022-11-17T22:52:03.914Z,6.85
2022-11-17T22:54:33.308Z,6.63
2022-11-17T22:57:00.221Z,5.30
2022-11-17T22:59:28.557Z,10.55
2022-11-17T23:01:55.524Z,4.82
2022-11-17T23:04:23.060Z,2.30
2022-11-17T23:06:49.552Z,3.33
2022-11-17T23:09:18.691Z,3.40
2022-11-17T23:11:50.027Z,3.45
2022-11-17T23:14:16.625Z,3.47
2022-11-17T23:16:43.071Z,1.83
2022-11-17T23:19:15.860Z,2.75
2022-11-17T23:21:42.782Z,2.53
2022-11-17T23:24:14.371Z,6.25
2022-11-17T23:26:41.951Z,3.40
2022-11-17T23:29:09.303Z,3.03
2022-11-17T23:31:35.853Z,8.80
2022-11-17T23:34:02.358Z,3.78
2022-11-17T23:36:28.877Z,7.05
2022-11-17T23:38:57.740Z,3.95
2022-11-17T23:41:26.628Z,2.15
2022-11-17T23:43:54.401Z,1.70
2022-11-17T23:46:26.037Z,2.88
2022-11-17T23:48:53.776Z,2.70
2022-11-17T23:51:22.954Z,2.20
2022-11-17T23:53:50.183Z,7.60
2022-11-17T23:56:17.208Z,1.23
2022-11-17T23:58:44.161Z,6.97
